Time;durP1;ratioP1;P1;durP2;ratioP2;P2;SDS_P1;SDS_P2;PMS_P1;PMS_P2;Temp;Humidity;BMP_temperature;BMP_pressure;BME280_temperature;BME280_humidity;BME280_pressure;Samples;Min_cycle;Max_cycle;Signal;HPM_P1;HPM_P2
2022/07/01 00:00:51;;;;;;;;;;;22.70;63.20;;;;;;5081524;28;19935;-78
2022/07/01 00:03:17;;;;;;;;;;;22.70;63.40;;;;;;5085469;28;20653;-76
2022/07/01 00:05:44;;;;;;;;;;;22.60;63.30;;;;;;5077194;28;19928;-76
2022/07/01 00:08:11;;;;;;;;;;;22.60;63.70;;;;;;5082265;28;19935;-74
2022/07/01 00:10:37;;;;;;;;;;;22.50;63.60;;;;;;5078604;28;19939;-75
2022/07/01 00:13:06;;;;;;;;;;;22.50;63.90;;;;;;5083323;28;19939;-75
2022/07/01 00:15:32;;;;;;;;;;;22.50;64.00;;;;;;5077235;28;20525;-75
2022/07/01 00:18:00;;;;;;;;;;;22.40;64.10;;;;;;5080186;28;19932;-74
2022/07/01 00:20:27;;;;;;;;;;;22.40;64.30;;;;;;5081701;28;20478;-77
2022/07/01 00:22:54;;;;;;;;;;;22.30;64.30;;;;;;5082548;28;19928;-78
2022/07/01 00:25:20;;;;;;;;;;;22.30;64.40;;;;;;5081214;28;19928;-77
2022/07/01 00:27:47;;;;;;;;;;;22.20;64.30;;;;;;5079293;28;19938;-76
2022/07/01 00:30:14;;;;;;;;;;;22.20;64.50;;;;;;5080820;28;19936;-77
2022/07/01 00:32:41;;;;;;;;;;;22.10;64.60;;;;;;5080710;28;20038;-76
2022/07/01 00:35:09;;;;;;;;;;;22.10;64.70;;;;;;5078955;28;19939;-75
2022/07/01 00:37:36;;;;;;;;;;;22.10;64.90;;;;;;5080102;28;20046;-74
2022/07/01 00:40:03;;;;;;;;;;;22.00;65.00;;;;;;5083116;28;19928;-74
2022/07/01 00:42:29;;;;;;;;;;;22.00;65.10;;;;;;5082119;28;20550;-75
2022/07/01 00:44:56;;;;;;;;;;;22.00;65.10;;;;;;5079816;28;20293;-77
2022/07/01 00:47:23;;;;;;;;;;;21.90;65.30;;;;;;5083905;28;19951;-78
2022/07/01 00:49:50;;;;;;;;;;;21.90;65.40;;;;;;5083299;28;19931;-76
2022/07/01 00:52:18;;;;;;;;;;;21.90;65.50;;;;;;5080598;28;19935;-77
2022/07/01 00:54:45;;;;;;;;;;;21.80;65.60;;;;;;5077891;28;19935;-78
2022/07/01 00:57:12;;;;;;;;;;;21.80;65.70;;;;;;5080127;28;20400;-74
2022/07/01 00:59:39;;;;;;;;;;;21.80;65.80;;;;;;5084235;28;19935;-75
2022/07/01 01:02:06;;;;;;;;;;;21.70;65.90;;;;;;5079181;28;19935;-75
2022/07/01 01:04:33;;;;;;;;;;;21.70;66.10;;;;;;5080988;28;19936;-77
2022/07/01 01:07:01;;;;;;;;;;;21.70;66.20;;;;;;5080149;28;20358;-77
2022/07/01 01:09:29;;;;;;;;;;;21.60;66.10;;;;;;5078127;28;19924;-76
2022/07/01 01:11:55;;;;;;;;;;;21.60;66.30;;;;;;5074834;28;19928;-75
2022/07/01 01:14:22;;;;;;;;;;;21.60;66.40;;;;;;5078243;28;19929;-75
2022/07/01 01:16:48;;;;;;;;;;;21.60;66.50;;;;;;5071757;28;20022;-75
2022/07/01 01:19:15;;;;;;;;;;;21.60;66.50;;;;;;5077373;28;19935;-77
2022/07/01 01:21:43;;;;;;;;;;;21.50;66.50;;;;;;5078343;28;19932;-75
2022/07/01 01:24:09;;;;;;;;;;;21.50;66.60;;;;;;5075035;28;19932;-75
2022/07/01 01:26:38;;;;;;;;;;;21.50;66.70;;;;;;5074831;28;19935;-75
2022/07/01 01:29:07;;;;;;;;;;;21.40;66.80;;;;;;5078296;28;20440;-75
2022/07/01 01:31:34;;;;;;;;;;;21.40;67.00;;;;;;5067623;28;19939;-75
2022/07/01 01:34:01;;;;;;;;;;;21.40;67.10;;;;;;5057536;28;20018;-78
2022/07/01 01:36:27;;;;;;;;;;;21.40;67.20;;;;;;5060461;28;19986;-78
2022/07/01 01:38:56;;;;;;;;;;;21.40;67.30;;;;;;5058457;28;19933;-75
2022/07/01 01:41:22;;;;;;;;;;;21.30;67.30;;;;;;5058404;28;20040;-77
2022/07/01 01:43:49;;;;;;;;;;;21.30;67.40;;;;;;5057800;28;19940;-77
2022/07/01 01:46:15;;;;;;;;;;;21.30;67.50;;;;;;5061578;28;19932;-77
2022/07/01 01:48:42;;;;;;;;;;;21.30;67.60;;;;;;5058694;28;21436;-74
2022/07/01 01:51:08;;;;;;;;;;;21.20;67.60;;;;;;5060392;28;19935;-75
2022/07/01 01:53:35;;;;;;;;;;;21.20;67.70;;;;;;5063539;28;19951;-75
2022/07/01 01:56:03;;;;;;;;;;;21.20;67.70;;;;;;5058972;28;19936;-77
2022/07/01 01:58:30;;;;;;;;;;;21.10;67.90;;;;;;5059205;28;19935;-75
2022/07/01 02:00:56;;;;;;;;;;;21.10;68.00;;;;;;5066708;28;19932;-78
2022/07/01 02:03:23;;;;;;;;;;;21.10;68.10;;;;;;5075186;28;19936;-75
2022/07/01 02:05:50;;;;;;;;;;;21.10;68.20;;;;;;5080491;28;19925;-78
2022/07/01 02:08:16;;;;;;;;;;;21.00;68.30;;;;;;5079047;28;19989;-78
2022/07/01 02:10:43;;;;;;;;;;;21.00;68.30;;;;;;5077801;28;19928;-76
2022/07/01 02:13:11;;;;;;;;;;;21.00;68.50;;;;;;5079487;28;20087;-75
2022/07/01 02:15:39;;;;;;;;;;;21.00;68.50;;;;;;5079543;28;20353;-75
2022/07/01 02:18:05;;;;;;;;;;;21.00;68.70;;;;;;5080954;28;19957;-75
2022/07/01 02:20:32;;;;;;;;;;;20.90;68.60;;;;;;5079397;28;20758;-78
2022/07/01 02:22:59;;;;;;;;;;;20.90;68.70;;;;;;5079173;28;20013;-76
2022/07/01 02:25:25;;;;;;;;;;;20.90;68.60;;;;;;5078492;28;19932;-76
2022/07/01 02:27:52;;;;;;;;;;;20.90;68.90;;;;;;5077057;28;19928;-77
2022/07/01 02:30:20;;;;;;;;;;;20.80;68.80;;;;;;5078273;28;20384;-75
2022/07/01 02:32:46;;;;;;;;;;;20.80;69.00;;;;;;5080414;28;19938;-75
2022/07/01 02:35:13;;;;;;;;;;;20.80;69.10;;;;;;5082673;28;20022;-76
2022/07/01 02:37:40;;;;;;;;;;;20.80;69.00;;;;;;5076368;28;19971;-75
2022/07/01 02:40:07;;;;;;;;;;;20.70;69.00;;;;;;5079612;28;19928;-76
2022/07/01 02:42:36;;;;;;;;;;;20.70;69.20;;;;;;5079960;28;19928;-76
2022/07/01 02:45:04;;;;;;;;;;;20.70;69.30;;;;;;5079036;28;19928;-76
2022/07/01 02:47:35;;;;;;;;;;;20.70;69.40;;;;;;5079698;28;19967;-77
2022/07/01 02:50:02;;;;;;;;;;;20.60;69.40;;;;;;5085201;28;19928;-79
2022/07/01 02:52:29;;;;;;;;;;;20.60;69.50;;;;;;5082307;28;19945;-77
2022/07/01 02:54:55;;;;;;;;;;;20.50;69.50;;;;;;5081959;28;19932;-75
2022/07/01 02:57:22;;;;;;;;;;;20.60;69.60;;;;;;5080230;28;19935;-78
2022/07/01 02:59:50;;;;;;;;;;;20.50;69.50;;;;;;5084504;28;19932;-76
2022/07/01 03:02:17;;;;;;;;;;;20.50;69.60;;;;;;5083472;28;20558;-76
2022/07/01 03:04:45;;;;;;;;;;;20.50;69.60;;;;;;5083267;28;19928;-78
2022/07/01 03:07:12;;;;;;;;;;;20.50;69.60;;;;;;5079555;28;20403;-75
2022/07/01 03:09:39;;;;;;;;;;;20.40;69.70;;;;;;5077176;28;19935;-76
2022/07/01 03:12:24;;;;;;;;;;;20.40;69.90;;;;;;5082720;28;20213;-76
2022/07/01 03:14:51;;;;;;;;;;;20.40;69.80;;;;;;5083360;28;19936;-76
2022/07/01 03:17:18;;;;;;;;;;;20.30;69.80;;;;;;5085350;28;19932;-75
2022/07/01 03:19:46;;;;;;;;;;;20.30;69.80;;;;;;5086783;28;19928;-78
2022/07/01 03:22:13;;;;;;;;;;;20.30;70.00;;;;;;5087125;28;19935;-77
2022/07/01 03:24:39;;;;;;;;;;;20.20;69.80;;;;;;5084235;28;19939;-76
2022/07/01 03:27:06;;;;;;;;;;;20.30;69.90;;;;;;5087485;28;19928;-77
2022/07/01 03:29:33;;;;;;;;;;;20.20;70.00;;;;;;5090936;28;19932;-76
2022/07/01 03:31:59;;;;;;;;;;;20.20;70.10;;;;;;5088258;28;19935;-77
2022/07/01 03:34:26;;;;;;;;;;;20.20;70.20;;;;;;5087946;28;19935;-76
2022/07/01 03:36:54;;;;;;;;;;;20.10;70.00;;;;;;5085455;28;19950;-76
2022/07/01 03:39:20;;;;;;;;;;;20.10;70.10;;;;;;5085400;28;20348;-78
2022/07/01 03:41:47;;;;;;;;;;;20.10;70.00;;;;;;5079711;28;19932;-75
2022/07/01 03:44:14;;;;;;;;;;;20.10;70.10;;;;;;5083472;28;19959;-75
2022/07/01 03:46:40;;;;;;;;;;;20.00;69.90;;;;;;5086386;28;20053;-76
2022/07/01 03:49:08;;;;;;;;;;;20.00;70.10;;;;;;5085421;28;20026;-77
2022/07/01 03:51:34;;;;;;;;;;;20.00;70.20;;;;;;5086398;28;20030;-76
2022/07/01 03:56:46;;;;;;;;;;;19.90;70.20;;;;;;5082686;28;19953;-77
2022/07/01 03:59:13;;;;;;;;;;;19.90;70.30;;;;;;5086446;28;19931;-77
2022/07/01 04:01:40;;;;;;;;;;;19.90;70.40;;;;;;5081407;28;19943;-77
2022/07/01 04:04:06;;;;;;;;;;;19.90;70.60;;;;;;5085012;28;20438;-78
2022/07/01 04:06:33;;;;;;;;;;;19.80;70.50;;;;;;5081989;28;19939;-75
2022/07/01 04:09:00;;;;;;;;;;;19.80;70.60;;;;;;5087372;28;19924;-78
2022/07/01 04:11:28;;;;;;;;;;;19.80;70.70;;;;;;5085293;28;19935;-78
2022/07/01 04:13:54;;;;;;;;;;;19.80;70.80;;;;;;5076462;28;19928;-78
2022/07/01 04:16:21;;;;;;;;;;;19.80;70.40;;;;;;5085781;28;19928;-78
2022/07/01 04:18:48;;;;;;;;;;;19.70;70.60;;;;;;5083037;28;19975;-75
2022/07/01 04:23:58;;;;;;;;;;;19.70;70.60;;;;;;5084484;28;20406;-76
2022/07/01 04:26:25;;;;;;;;;;;19.70;70.70;;;;;;5083942;28;19928;-78
2022/07/01 04:28:53;;;;;;;;;;;19.60;70.70;;;;;;5079900;28;20416;-78
2022/07/01 04:31:20;;;;;;;;;;;19.60;70.80;;;;;;5085152;28;19935;-77
2022/07/01 04:33:46;;;;;;;;;;;19.60;70.90;;;;;;5085560;28;19924;-77
2022/07/01 04:36:13;;;;;;;;;;;19.50;71.00;;;;;;5085003;28;19944;-78
2022/07/01 04:38:39;;;;;;;;;;;19.60;71.00;;;;;;5086226;28;19928;-76
2022/07/01 04:43:50;;;;;;;;;;;19.50;71.00;;;;;;5082928;28;20016;-77
2022/07/01 04:46:18;;;;;;;;;;;19.50;71.00;;;;;;5083933;28;19928;-78
2022/07/01 04:48:44;;;;;;;;;;;19.50;71.10;;;;;;5086184;28;19939;-78
2022/07/01 04:51:11;;;;;;;;;;;19.50;71.00;;;;;;5078400;28;19928;-76
2022/07/01 04:53:38;;;;;;;;;;;19.40;71.20;;;;;;5084921;28;19954;-76
2022/07/01 04:56:04;;;;;;;;;;;19.40;71.20;;;;;;5078915;28;20330;-76
2022/07/01 04:58:31;;;;;;;;;;;19.40;71.10;;;;;;5081199;28;20375;-78
2022/07/01 05:00:58;;;;;;;;;;;19.40;71.30;;;;;;5085107;28;19932;-78
2022/07/01 05:03:26;;;;;;;;;;;19.40;71.30;;;;;;5084441;28;19932;-78
2022/07/01 05:05:52;;;;;;;;;;;19.40;71.40;;;;;;5083276;28;19924;-77
2022/07/01 05:08:19;;;;;;;;;;;19.40;71.60;;;;;;5083992;28;19932;-78
2022/07/01 05:10:45;;;;;;;;;;;19.30;71.60;;;;;;5084582;28;20010;-78
2022/07/01 05:13:12;;;;;;;;;;;19.30;71.70;;;;;;5085851;28;19950;-75
2022/07/01 05:15:38;;;;;;;;;;;19.30;71.90;;;;;;5082497;28;19934;-75
2022/07/01 05:23:35;;;;;;;;;;;19.30;72.20;;;;;;5037101;28;19932;-77
2022/07/01 05:26:02;;;;;;;;;;;19.20;72.10;;;;;;5081810;28;20453;-77
2022/07/01 05:28:29;;;;;;;;;;;19.20;72.00;;;;;;5082374;28;19932;-77
2022/07/01 05:30:55;;;;;;;;;;;19.20;72.30;;;;;;5077582;28;19931;-77
2022/07/01 05:33:26;;;;;;;;;;;19.00;72.30;;;;;;5074935;28;19931;-70
2022/07/01 05:35:54;;;;;;;;;;;19.00;73.00;;;;;;5082003;28;20406;-72
2022/07/01 05:38:20;;;;;;;;;;;19.00;73.70;;;;;;5081829;28;19942;-68
2022/07/01 05:40:47;;;;;;;;;;;18.90;73.70;;;;;;5080245;28;19962;-66
2022/07/01 05:43:13;;;;;;;;;;;18.90;73.80;;;;;;5076183;28;19935;-67
2022/07/01 05:45:40;;;;;;;;;;;18.90;73.80;;;;;;5073970;28;20396;-67
2022/07/01 05:48:07;;;;;;;;;;;18.90;73.70;;;;;;5077825;28;19981;-69
2022/07/01 05:50:34;;;;;;;;;;;18.90;73.60;;;;;;5081193;28;19935;-67
2022/07/01 05:53:02;;;;;;;;;;;18.90;73.70;;;;;;5080964;28;19929;-69
2022/07/01 05:55:28;;;;;;;;;;;18.90;73.70;;;;;;5074621;28;19928;-69
2022/07/01 05:57:55;;;;;;;;;;;18.90;73.70;;;;;;5080602;28;20261;-70
2022/07/01 06:00:21;;;;;;;;;;;18.90;73.70;;;;;;5080863;28;20337;-72
2022/07/01 06:02:48;;;;;;;;;;;18.90;73.80;;;;;;5081133;28;19935;-78
2022/07/01 06:05:15;;;;;;;;;;;18.90;74.00;;;;;;5092382;28;19927;-81
2022/07/01 06:07:42;;;;;;;;;;;18.90;73.80;;;;;;5084870;28;19935;-77
2022/07/01 06:10:11;;;;;;;;;;;18.90;73.90;;;;;;5087314;28;20280;-80
2022/07/01 06:12:38;;;;;;;;;;;18.90;74.00;;;;;;5090328;28;19943;-79
2022/07/01 06:15:05;;;;;;;;;;;18.90;73.90;;;;;;5086852;28;20008;-81
2022/07/01 06:17:32;;;;;;;;;;;18.90;74.00;;;;;;5089457;28;19928;-80
2022/07/01 06:19:58;;;;;;;;;;;18.90;73.90;;;;;;5088694;28;19939;-80
2022/07/01 06:22:25;;;;;;;;;;;18.90;74.30;;;;;;5085973;28;19928;-81
2022/07/01 06:24:51;;;;;;;;;;;18.80;74.10;;;;;;5087494;28;19928;-82
2022/07/01 06:27:19;;;;;;;;;;;18.80;74.40;;;;;;5090229;28;19923;-78
2022/07/01 06:29:46;;;;;;;;;;;18.80;74.40;;;;;;5088920;28;19946;-79
2022/07/01 06:32:13;;;;;;;;;;;18.80;74.50;;;;;;5086095;28;19973;-78
2022/07/01 06:34:39;;;;;;;;;;;18.80;74.50;;;;;;5085271;28;19939;-81
2022/07/01 06:37:06;;;;;;;;;;;18.70;74.40;;;;;;5083749;28;20023;-81
2022/07/01 06:39:32;;;;;;;;;;;18.80;74.50;;;;;;5083010;28;19932;-80
2022/07/01 06:41:59;;;;;;;;;;;18.70;74.50;;;;;;5085858;28;19963;-76
2022/07/01 06:44:27;;;;;;;;;;;18.70;74.90;;;;;;5086868;28;19932;-79
2022/07/01 06:46:54;;;;;;;;;;;18.70;74.80;;;;;;5083520;28;19943;-76
2022/07/01 06:49:20;;;;;;;;;;;18.70;74.80;;;;;;5087300;28;19931;-79
2022/07/01 06:51:47;;;;;;;;;;;18.70;75.00;;;;;;5087130;28;19934;-77
2022/07/01 06:54:13;;;;;;;;;;;18.70;75.00;;;;;;5083333;28;19928;-77
2022/07/01 06:56:40;;;;;;;;;;;18.70;75.00;;;;;;5086591;28;19932;-77
2022/07/01 06:59:06;;;;;;;;;;;18.70;75.10;;;;;;5086178;28;19935;-80
2022/07/01 07:01:34;;;;;;;;;;;18.70;75.20;;;;;;5088838;28;19928;-79
2022/07/01 07:04:01;;;;;;;;;;;18.60;75.20;;;;;;5088541;28;20533;-81
2022/07/01 07:06:28;;;;;;;;;;;18.60;75.30;;;;;;5088570;28;19935;-81
2022/07/01 07:08:55;;;;;;;;;;;18.60;75.40;;;;;;5083786;28;20019;-79
2022/07/01 07:11:22;;;;;;;;;;;18.60;75.40;;;;;;5090107;28;19934;-82
2022/07/01 07:13:48;;;;;;;;;;;18.50;75.60;;;;;;5084519;28;20403;-80
2022/07/01 07:16:15;;;;;;;;;;;18.50;75.50;;;;;;5083956;28;19924;-78
2022/07/01 07:18:43;;;;;;;;;;;18.50;75.40;;;;;;5081147;28;20399;-75
2022/07/01 07:21:10;;;;;;;;;;;18.50;75.40;;;;;;5087668;28;20019;-79
2022/07/01 07:23:37;;;;;;;;;;;18.50;76.20;;;;;;5083947;28;20019;-82
2022/07/01 07:26:04;;;;;;;;;;;18.50;75.60;;;;;;5087129;28;19932;-78
2022/07/01 07:28:30;;;;;;;;;;;18.50;75.70;;;;;;5089611;28;19940;-77
2022/07/01 07:30:57;;;;;;;;;;;18.50;75.70;;;;;;5083226;28;20015;-78
2022/07/01 07:33:23;;;;;;;;;;;18.50;75.70;;;;;;5088488;28;19927;-81
2022/07/01 07:35:52;;;;;;;;;;;18.40;75.90;;;;;;5086825;28;19928;-79
2022/07/01 07:38:18;;;;;;;;;;;18.40;75.90;;;;;;5081838;28;20333;-77
2022/07/01 07:40:45;;;;;;;;;;;18.40;75.90;;;;;;5087928;28;20285;-76
2022/07/01 07:43:11;;;;;;;;;;;18.40;75.90;;;;;;5083024;28;19936;-77
2022/07/01 07:45:38;;;;;;;;;;;18.40;76.00;;;;;;5084906;28;19928;-77
2022/07/01 07:48:05;;;;;;;;;;;18.40;76.00;;;;;;5087081;28;19932;-78
2022/07/01 07:50:32;;;;;;;;;;;18.40;76.10;;;;;;5091611;28;19983;-79
2022/07/01 07:53:00;;;;;;;;;;;18.30;76.10;;;;;;5083520;28;19924;-79
2022/07/01 07:55:27;;;;;;;;;;;18.30;76.10;;;;;;5083132;28;19928;-77
2022/07/01 07:57:54;;;;;;;;;;;18.40;76.30;;;;;;5080947;28;19928;-81
2022/07/01 08:00:21;;;;;;;;;;;18.40;76.40;;;;;;5087503;28;19936;-80
2022/07/01 08:02:48;;;;;;;;;;;18.30;76.80;;;;;;5077214;28;19928;-75
2022/07/01 08:05:14;;;;;;;;;;;18.30;76.40;;;;;;5079917;28;19928;-75
2022/07/01 08:07:42;;;;;;;;;;;18.40;76.60;;;;;;5076505;28;19997;-75
2022/07/01 08:10:12;;;;;;;;;;;18.30;76.30;;;;;;5078239;28;19936;-79
2022/07/01 08:12:38;;;;;;;;;;;18.30;76.40;;;;;;5084074;28;19939;-78
2022/07/01 08:15:06;;;;;;;;;;;18.30;76.50;;;;;;5079034;28;19928;-79
2022/07/01 08:17:33;;;;;;;;;;;18.30;76.50;;;;;;5083362;28;19994;-80
2022/07/01 08:20:00;;;;;;;;;;;18.30;76.90;;;;;;5094382;28;20185;-80
2022/07/01 08:22:27;;;;;;;;;;;18.30;76.70;;;;;;5094893;28;19928;-79
2022/07/01 08:24:53;;;;;;;;;;;18.30;76.90;;;;;;5094682;28;19935;-80
2022/07/01 08:27:22;;;;;;;;;;;18.30;76.80;;;;;;5094825;28;19927;-78
2022/07/01 08:29:48;;;;;;;;;;;18.30;76.80;;;;;;5094177;28;19975;-81
2022/07/01 08:32:15;;;;;;;;;;;18.30;77.00;;;;;;5093075;28;20141;-79
2022/07/01 08:34:42;;;;;;;;;;;18.30;77.00;;;;;;5095541;28;20620;-77
2022/07/01 08:37:09;;;;;;;;;;;18.30;77.20;;;;;;5093932;28;19928;-80
2022/07/01 08:39:35;;;;;;;;;;;18.20;77.10;;;;;;5090248;28;19932;-83
2022/07/01 08:42:02;;;;;;;;;;;18.30;77.30;;;;;;5091675;28;19932;-78
2022/07/01 08:44:31;;;;;;;;;;;18.30;77.30;;;;;;5082471;28;20380;-74
2022/07/01 08:46:58;;;;;;;;;;;18.20;77.20;;;;;;5076915;28;19928;-74
2022/07/01 08:49:25;;;;;;;;;;;18.20;77.20;;;;;;5078273;28;19928;-79
2022/07/01 08:51:51;;;;;;;;;;;18.20;77.30;;;;;;5074895;28;19939;-78
2022/07/01 08:54:18;;;;;;;;;;;18.20;77.40;;;;;;5078609;28;20588;-75
2022/07/01 08:56:45;;;;;;;;;;;18.20;77.30;;;;;;5082288;28;19986;-76
2022/07/01 08:59:13;;;;;;;;;;;18.20;77.50;;;;;;5079781;28;20035;-75
2022/07/01 09:01:41;;;;;;;;;;;18.10;77.40;;;;;;5076734;28;20422;-73
2022/07/01 09:04:14;;;;;;;;;;;18.10;77.40;;;;;;5078033;28;19932;-73
2022/07/01 09:06:41;;;;;;;;;;;18.10;77.40;;;;;;5077911;28;19932;-75
2022/07/01 09:09:11;;;;;;;;;;;18.10;77.60;;;;;;5080429;28;19936;-74
2022/07/01 09:11:38;;;;;;;;;;;18.10;77.70;;;;;;5079763;28;19939;-73
2022/07/01 09:14:08;;;;;;;;;;;18.10;77.70;;;;;;5077060;28;19943;-74
2022/07/01 09:16:41;;;;;;;;;;;18.20;77.80;;;;;;5076796;28;19932;-76
2022/07/01 09:19:08;;;;;;;;;;;18.10;77.90;;;;;;5081870;28;19932;-74
2022/07/01 09:21:35;;;;;;;;;;;18.20;78.10;;;;;;5077260;28;19935;-75
2022/07/01 09:24:03;;;;;;;;;;;18.20;78.20;;;;;;5078355;28;19932;-77
2022/07/01 09:26:29;;;;;;;;;;;18.20;78.10;;;;;;5075529;28;19935;-74
2022/07/01 09:28:57;;;;;;;;;;;18.20;78.10;;;;;;5075807;28;19967;-76
2022/07/01 09:31:23;;;;;;;;;;;18.20;78.10;;;;;;5077014;28;19935;-74
2022/07/01 09:34:04;;;;;;;;;;;18.20;77.90;;;;;;5075666;28;19950;-74
2022/07/01 09:36:31;;;;;;;;;;;18.30;78.00;;;;;;5080056;28;19932;-77
2022/07/01 09:38:57;;;;;;;;;;;18.30;78.10;;;;;;5077518;28;21237;-77
2022/07/01 09:41:24;;;;;;;;;;;18.30;77.90;;;;;;5077299;28;20395;-80
2022/07/01 09:43:50;;;;;;;;;;;18.30;77.90;;;;;;5076933;28;19932;-77
2022/07/01 09:46:17;;;;;;;;;;;18.30;78.00;;;;;;5075500;28;19932;-77
2022/07/01 09:48:45;;;;;;;;;;;18.30;78.00;;;;;;5079892;28;20636;-78
2022/07/01 09:51:13;;;;;;;;;;;18.40;78.00;;;;;;5080219;28;20432;-79
2022/07/01 09:53:40;;;;;;;;;;;18.40;77.90;;;;;;5086278;28;19939;-81
2022/07/01 09:56:06;;;;;;;;;;;18.40;77.90;;;;;;5086856;28;19932;-81
2022/07/01 09:58:35;;;;;;;;;;;18.50;77.80;;;;;;5090571;28;19991;-82
2022/07/01 10:01:02;;;;;;;;;;;18.50;77.70;;;;;;5089490;28;19987;-82
2022/07/01 10:03:31;;;;;;;;;;;18.60;77.60;;;;;;5087726;28;20378;-80
2022/07/01 10:06:04;;;;;;;;;;;18.50;77.40;;;;;;5076652;28;19932;-79
2022/07/01 10:08:39;;;;;;;;;;;18.50;77.30;;;;;;5080915;28;19928;-76
2022/07/01 10:11:17;;;;;;;;;;;18.60;77.20;;;;;;5077902;28;19936;-78
2022/07/01 10:13:44;;;;;;;;;;;18.60;77.10;;;;;;5081927;28;20301;-74
2022/07/01 10:16:11;;;;;;;;;;;18.60;77.10;;;;;;5078103;28;19928;-73
2022/07/01 10:18:37;;;;;;;;;;;18.70;77.30;;;;;;5078275;28;19928;-80
2022/07/01 10:21:05;;;;;;;;;;;18.80;76.80;;;;;;5081876;28;19935;-75
2022/07/01 10:23:39;;;;;;;;;;;18.80;76.60;;;;;;5081896;28;20027;-76
2022/07/01 10:26:07;;;;;;;;;;;18.80;76.40;;;;;;5081157;28;19940;-79
2022/07/01 10:28:43;;;;;;;;;;;18.90;76.20;;;;;;5078202;28;19951;-81
2022/07/01 10:31:15;;;;;;;;;;;18.90;75.90;;;;;;5076084;28;19935;-75
2022/07/01 10:33:46;;;;;;;;;;;18.90;75.70;;;;;;5077427;28;20015;-76
2022/07/01 10:36:15;;;;;;;;;;;19.00;75.50;;;;;;5077087;28;20357;-73
2022/07/01 10:39:00;;;;;;;;;;;19.00;75.20;;;;;;5078937;28;20556;-78
2022/07/01 10:41:29;;;;;;;;;;;19.10;75.10;;;;;;5075009;28;20443;-78
2022/07/01 10:43:56;;;;;;;;;;;19.10;75.00;;;;;;5073593;28;20751;-76
2022/07/01 10:46:38;;;;;;;;;;;19.10;75.00;;;;;;5071820;28;21198;-74
2022/07/01 10:49:04;;;;;;;;;;;19.20;74.70;;;;;;5080013;28;19931;-76
2022/07/01 10:51:42;;;;;;;;;;;19.20;74.10;;;;;;5080716;28;19928;-77
2022/07/01 10:54:09;;;;;;;;;;;19.20;73.90;;;;;;5083373;28;19928;-76
2022/07/01 10:56:40;;;;;;;;;;;19.20;73.60;;;;;;5079554;28;19975;-82
2022/07/01 10:59:06;;;;;;;;;;;19.30;73.50;;;;;;5081989;28;19932;-77
2022/07/01 11:01:33;;;;;;;;;;;19.40;73.50;;;;;;5080749;28;19932;-77
2022/07/01 11:03:59;;;;;;;;;;;19.40;73.30;;;;;;5076715;28;19935;-76
2022/07/01 11:06:26;;;;;;;;;;;19.40;73.20;;;;;;5078800;28;19936;-77
2022/07/01 11:08:53;;;;;;;;;;;19.50;73.10;;;;;;5076601;28;19928;-77
2022/07/01 11:11:20;;;;;;;;;;;19.60;73.00;;;;;;5078392;28;19928;-78
2022/07/01 11:13:48;;;;;;;;;;;19.60;72.90;;;;;;5073847;28;19932;-78
2022/07/01 11:16:15;;;;;;;;;;;19.60;72.30;;;;;;5074176;28;19927;-78
2022/07/01 11:18:42;;;;;;;;;;;19.70;72.10;;;;;;5079205;28;19932;-78
2022/07/01 11:21:09;;;;;;;;;;;19.70;72.00;;;;;;5080265;28;19944;-78
2022/07/01 11:23:36;;;;;;;;;;;19.80;71.80;;;;;;5073785;28;19928;-77
2022/07/01 11:26:02;;;;;;;;;;;19.90;71.50;;;;;;5079634;28;19924;-75
2022/07/01 11:28:29;;;;;;;;;;;19.90;70.90;;;;;;5080623;28;19928;-78
2022/07/01 11:31:01;;;;;;;;;;;20.00;70.30;;;;;;5076726;28;19935;-75
2022/07/01 11:33:28;;;;;;;;;;;20.00;69.70;;;;;;5078741;28;19928;-76
2022/07/01 11:41:24;;;;;;;;;;;20.20;68.90;;;;;;5080923;28;19935;-76
2022/07/01 11:43:52;;;;;;;;;;;20.30;68.90;;;;;;5079007;28;19935;-76
2022/07/01 11:46:20;;;;;;;;;;;20.40;69.50;;;;;;5081617;28;20443;-75
2022/07/01 11:48:49;;;;;;;;;;;20.40;68.00;;;;;;5081919;28;19932;-75
2022/07/01 11:51:18;;;;;;;;;;;20.50;67.60;;;;;;5079596;28;20304;-76
2022/07/01 11:53:46;;;;;;;;;;;20.60;67.70;;;;;;5078167;28;19932;-74
2022/07/01 11:56:13;;;;;;;;;;;20.60;67.20;;;;;;5075321;28;19951;-74
2022/07/01 11:58:47;;;;;;;;;;;20.70;66.90;;;;;;5080059;28;20463;-73
2022/07/01 12:01:25;;;;;;;;;;;20.70;66.80;;;;;;5082123;28;19971;-78
2022/07/01 12:03:52;;;;;;;;;;;20.80;66.80;;;;;;5078103;28;19936;-74
2022/07/01 12:06:19;;;;;;;;;;;20.90;66.10;;;;;;5081579;28;19928;-73
2022/07/01 12:08:46;;;;;;;;;;;20.90;66.30;;;;;;5081851;28;19935;-77
2022/07/01 12:11:13;;;;;;;;;;;21.00;66.60;;;;;;5085182;28;19932;-74
2022/07/01 12:13:40;;;;;;;;;;;21.10;65.40;;;;;;5082306;28;19929;-76
2022/07/01 12:16:07;;;;;;;;;;;21.10;65.50;;;;;;5081831;28;19928;-76
2022/07/01 12:18:35;;;;;;;;;;;21.10;65.90;;;;;;5078131;28;20022;-72
2022/07/01 12:21:02;;;;;;;;;;;21.20;66.10;;;;;;5082534;28;19932;-79
2022/07/01 12:23:28;;;;;;;;;;;21.20;65.00;;;;;;5081360;28;19927;-78
2022/07/01 12:25:55;;;;;;;;;;;21.30;64.40;;;;;;5088076;28;19924;-76
2022/07/01 12:28:29;;;;;;;;;;;21.30;64.10;;;;;;5083034;28;20032;-74
2022/07/01 12:31:07;;;;;;;;;;;21.30;64.80;;;;;;5084607;28;19932;-75
2022/07/01 12:33:36;;;;;;;;;;;21.30;64.50;;;;;;5087429;28;19928;-77
2022/07/01 12:36:04;;;;;;;;;;;21.40;64.40;;;;;;5084989;28;20378;-77
2022/07/01 12:38:30;;;;;;;;;;;21.40;65.10;;;;;;5080757;28;19928;-74
2022/07/01 12:40:57;;;;;;;;;;;21.40;66.30;;;;;;5074627;28;21275;-76
2022/07/01 12:43:25;;;;;;;;;;;21.40;65.20;;;;;;5077012;28;19928;-76
2022/07/01 12:45:51;;;;;;;;;;;21.40;64.40;;;;;;5075462;28;20033;-74
2022/07/01 12:48:18;;;;;;;;;;;21.50;64.40;;;;;;5076617;28;19935;-76
2022/07/01 12:50:47;;;;;;;;;;;21.50;64.00;;;;;;5076850;28;19961;-76
2022/07/01 12:53:18;;;;;;;;;;;21.50;63.80;;;;;;5075118;28;20400;-75
2022/07/01 12:55:46;;;;;;;;;;;21.50;64.20;;;;;;5079219;28;19994;-77
2022/07/01 12:58:13;;;;;;;;;;;21.60;64.60;;;;;;5076718;28;19932;-75
2022/07/01 13:00:40;;;;;;;;;;;21.60;64.50;;;;;;5078122;28;19936;-74
2022/07/01 13:03:07;;;;;;;;;;;21.60;65.30;;;;;;5077335;28;19932;-74
2022/07/01 13:05:35;;;;;;;;;;;21.70;66.10;;;;;;5075810;28;19928;-74
2022/07/01 13:08:03;;;;;;;;;;;21.70;65.30;;;;;;5076115;28;20026;-75
2022/07/01 13:10:29;;;;;;;;;;;21.70;63.70;;;;;;5076437;28;19936;-76
2022/07/01 13:12:56;;;;;;;;;;;21.80;63.20;;;;;;5072988;28;19932;-76
2022/07/01 13:15:23;;;;;;;;;;;21.80;63.60;;;;;;5075794;28;19934;-77
2022/07/01 13:17:50;;;;;;;;;;;21.90;63.40;;;;;;5077457;28;20659;-75
2022/07/01 13:20:17;;;;;;;;;;;21.90;63.00;;;;;;5077995;28;19973;-76
2022/07/01 13:22:44;;;;;;;;;;;22.00;62.70;;;;;;5073169;28;19947;-73
2022/07/01 13:25:13;;;;;;;;;;;22.10;62.90;;;;;;5078553;28;19930;-80
2022/07/01 13:27:39;;;;;;;;;;;22.20;61.70;;;;;;5077039;28;19932;-78
2022/07/01 13:30:08;;;;;;;;;;;22.60;54.80;;;;;;5080603;28;20362;-78
2022/07/01 13:32:34;;;;;;;;;;;23.30;53.00;;;;;;5077371;28;19947;-77
2022/07/01 13:35:02;;;;;;;;;;;23.70;52.10;;;;;;5083144;28;20284;-80
2022/07/01 13:37:29;;;;;;;;;;;23.70;52.90;;;;;;5083237;28;19928;-78
2022/07/01 13:39:56;;;;;;;;;;;23.50;53.60;;;;;;5082712;28;20253;-78
2022/07/01 13:42:24;;;;;;;;;;;23.40;54.00;;;;;;5081148;28;19925;-79
2022/07/01 13:44:50;;;;;;;;;;;23.40;54.40;;;;;;5085197;28;19932;-80
2022/07/01 13:47:17;;;;;;;;;;;23.30;55.40;;;;;;5080265;28;20685;-80
2022/07/01 13:49:44;;;;;;;;;;;23.20;56.10;;;;;;5085234;28;19932;-81
2022/07/01 13:52:10;;;;;;;;;;;23.20;56.00;;;;;;5084315;28;19932;-79
2022/07/01 13:54:37;;;;;;;;;;;23.20;57.20;;;;;;5076603;28;19935;-79
2022/07/01 13:57:04;;;;;;;;;;;23.20;58.30;;;;;;5080147;28;19932;-78
2022/07/01 13:59:32;;;;;;;;;;;23.20;59.30;;;;;;5081433;28;19948;-77
2022/07/01 14:01:59;;;;;;;;;;;23.20;59.40;;;;;;5074945;28;19928;-78
2022/07/01 14:04:25;;;;;;;;;;;23.20;58.50;;;;;;5078857;28;20294;-80
2022/07/01 14:06:52;;;;;;;;;;;23.10;58.20;;;;;;5080958;28;19931;-78
2022/07/01 14:09:18;;;;;;;;;;;23.20;57.80;;;;;;5076997;28;19932;-77
2022/07/01 14:11:46;;;;;;;;;;;23.30;58.20;;;;;;5081949;28;19939;-78
2022/07/01 14:14:12;;;;;;;;;;;23.30;57.60;;;;;;5075816;28;19931;-76
2022/07/01 14:16:40;;;;;;;;;;;23.30;57.20;;;;;;5082200;28;19935;-76
2022/07/01 14:19:07;;;;;;;;;;;23.40;57.30;;;;;;5077843;28;19928;-80
2022/07/01 14:21:33;;;;;;;;;;;23.40;55.50;;;;;;5083232;28;20303;-74
2022/07/01 14:24:00;;;;;;;;;;;23.90;54.40;;;;;;5078079;28;19935;-74
2022/07/01 14:26:27;;;;;;;;;;;24.20;53.10;;;;;;5080440;28;20413;-74
2022/07/01 14:28:53;;;;;;;;;;;24.30;52.10;;;;;;5083110;28;19953;-75
2022/07/01 14:31:20;;;;;;;;;;;24.50;52.00;;;;;;5080894;28;20405;-75
2022/07/01 14:33:48;;;;;;;;;;;24.50;52.00;;;;;;5075199;28;19939;-76
2022/07/01 14:36:14;;;;;;;;;;;24.60;51.90;;;;;;5081496;28;20021;-75